createdAt,value
2023-02-26T00:01:50.672Z,1.30
2023-02-26T00:04:18.501Z,3.30
2023-02-26T00:06:55.780Z,4.13
2023-02-26T00:09:25.944Z,5.50
2023-02-26T00:11:54.659Z,5.53
2023-02-26T00:25:12.358Z,3.37
2023-02-26T00:28:43.577Z,1.27
2023-02-26T00:31:50.003Z,5.90
2023-02-26T00:35:24.391Z,1.43
2023-02-26T00:42:23.986Z,3.53
2023-02-26T00:48:58.114Z,2.67
2023-02-26T01:01:57.442Z,4.63
2023-02-26T01:04:55.967Z,2.40
2023-02-26T01:08:14.229Z,4.10
2023-02-26T01:15:05.119Z,1.80
2023-02-26T01:18:19.249Z,4.70
2023-02-26T01:24:49.426Z,4.27
2023-02-26T01:27:44.511Z,1.90
2023-02-26T01:31:00.270Z,2.00
2023-02-26T01:37:14.418Z,8.83
2023-02-26T01:40:19.972Z,3.10
2023-02-26T01:44:19.493Z,1.73
2023-02-26T01:57:54.973Z,3.03
2023-02-26T02:01:36.591Z,2.37
2023-02-26T02:25:00.815Z,4.20
2023-02-26T02:31:35.963Z,2.13
2023-02-26T02:37:52.650Z,3.07
2023-02-26T02:45:12.211Z,2.73
2023-02-26T02:48:27.917Z,3.97
2023-02-26T02:55:49.924Z,3.87
2023-02-26T03:03:02.613Z,3.30
2023-02-26T03:06:27.585Z,3.37
2023-02-26T03:09:52.876Z,2.23
2023-02-26T03:16:48.396Z,2.40
2023-02-26T03:20:22.161Z,2.23
2023-02-26T03:23:43.309Z,2.20
2023-02-26T03:37:21.178Z,1.23
2023-02-26T03:40:16.333Z,2.20
2023-02-26T03:53:47.297Z,3.77
2023-02-26T03:56:49.341Z,1.53
2023-02-26T04:03:18.359Z,2.03
2023-02-26T04:05:51.200Z,1.90
2023-02-26T04:08:54.397Z,1.47
2023-02-26T04:12:11.723Z,3.07
2023-02-26T04:31:50.811Z,3.13
2023-02-26T04:35:13.113Z,1.57
2023-02-26T04:41:10.818Z,2.33
2023-02-26T04:44:26.796Z,4.27
2023-02-26T04:50:43.899Z,3.13
2023-02-26T05:00:12.236Z,5.87
2023-02-26T05:03:24.654Z,4.53
2023-02-26T05:13:06.429Z,4.57
2023-02-26T05:16:20.200Z,2.80
2023-02-26T05:23:14.993Z,4.00
2023-02-26T05:37:00.967Z,2.50
2023-02-26T06:15:45.965Z,2.47
2023-02-26T06:22:27.044Z,1.17
2023-02-26T06:32:27.809Z,3.60
2023-02-26T06:41:43.616Z,2.67
2023-02-26T06:44:37.546Z,3.97
2023-02-26T06:56:58.378Z,2.70
2023-02-26T07:00:18.866Z,2.37
2023-02-26T07:10:36.918Z,5.70
2023-02-26T07:20:36.445Z,3.27
2023-02-26T07:23:12.902Z,2.60
2023-02-26T07:25:54.860Z,1.47
2023-02-26T07:28:39.032Z,2.20
2023-02-26T07:31:13.319Z,1.77
2023-02-26T07:33:49.300Z,2.40
2023-02-26T07:36:27.366Z,1.47
2023-02-26T07:38:59.579Z,3.20
2023-02-26T07:41:51.960Z,3.37
2023-02-26T07:44:24.319Z,1.27
2023-02-26T07:47:01.901Z,4.10
2023-02-26T07:49:48.543Z,2.47
2023-02-26T07:52:30.900Z,2.47
2023-02-26T07:55:13.713Z,1.77
2023-02-26T07:57:45.383Z,2.70
2023-02-26T08:00:29.032Z,5.17
2023-02-26T08:11:58.798Z,3.27
2023-02-26T08:15:36.146Z,2.57
2023-02-26T08:30:55.614Z,2.97
2023-02-26T09:25:07.535Z,1.87
2023-02-26T09:28:49.528Z,0.90
2023-02-26T09:57:57.939Z,1.80
2023-02-26T11:04:33.162Z,0.73
2023-02-26T11:08:24.078Z,2.77
2023-02-26T11:22:37.188Z,1.53
2023-02-26T11:25:06.071Z,1.07
2023-02-26T11:27:36.856Z,2.77
2023-02-26T11:30:08.908Z,2.17
2023-02-26T11:32:39.386Z,2.10
2023-02-26T11:35:09.479Z,2.37
2023-02-26T11:37:41.370Z,3.60
2023-02-26T11:40:17.272Z,1.60
2023-02-26T11:42:50.939Z,0.67
2023-02-26T11:45:21.249Z,1.73
2023-02-26T11:47:51.391Z,0.40
2023-02-26T11:50:23.825Z,1.80
2023-02-26T11:53:04.889Z,0.83
2023-02-26T11:55:34.980Z,0.70
2023-02-26T11:58:02.646Z,0.50
2023-02-26T12:00:32.831Z,2.37
2023-02-26T12:03:04.329Z,1.73
2023-02-26T12:05:32.269Z,0.87
2023-02-26T12:08:03.568Z,1.60
2023-02-26T12:10:40.436Z,0.80
2023-02-26T12:13:17.037Z,0.90
2023-02-26T12:15:57.113Z,0.63
2023-02-26T12:18:37.953Z,1.07
2023-02-26T12:21:18.407Z,1.40
2023-02-26T12:24:28.117Z,1.47
2023-02-26T12:27:01.133Z,1.03
2023-02-26T12:29:40.465Z,1.97
2023-02-26T12:32:26.795Z,0.80
2023-02-26T12:35:12.321Z,1.53
2023-02-26T12:37:53.306Z,0.53
2023-02-26T12:40:50.807Z,0.87
2023-02-26T12:43:26.717Z,4.07
2023-02-26T12:46:02.900Z,1.67
2023-02-26T12:48:54.390Z,1.43
2023-02-26T12:51:38.276Z,2.57
2023-02-26T12:54:27.906Z,0.90
2023-02-26T12:57:10.862Z,1.80
2023-02-26T12:59:56.982Z,1.87
2023-02-26T13:03:01.991Z,0.83
2023-02-26T13:05:43.830Z,1.43
2023-02-26T13:08:21.764Z,0.53
2023-02-26T13:11:08.321Z,2.10
2023-02-26T13:13:54.366Z,0.47
2023-02-26T13:16:33.801Z,1.10
2023-02-26T13:19:09.289Z,1.90
2023-02-26T13:21:41.984Z,0.90
2023-02-26T13:24:15.728Z,3.43
2023-02-26T13:26:44.619Z,0.60
2023-02-26T13:29:17.320Z,1.03
2023-02-26T13:31:49.024Z,1.03
2023-02-26T13:34:21.971Z,0.77
2023-02-26T13:36:52.707Z,0.50
2023-02-26T13:39:48.819Z,0.50
2023-02-26T13:42:27.302Z,1.03
2023-02-26T13:45:12.456Z,0.97
2023-02-26T13:47:56.738Z,0.70
2023-02-26T13:50:36.947Z,1.40
2023-02-26T13:53:28.285Z,1.40
2023-02-26T13:56:06.886Z,0.97
2023-02-26T13:58:41.419Z,1.40
2023-02-26T14:01:15.387Z,0.70
2023-02-26T14:03:49.689Z,0.73
2023-02-26T14:06:42.252Z,1.23
2023-02-26T14:09:36.477Z,1.23
2023-02-26T14:12:06.053Z,1.63
2023-02-26T14:14:44.690Z,0.97
2023-02-26T14:17:37.191Z,0.50
2023-02-26T14:20:18.730Z,0.57
2023-02-26T14:22:50.407Z,1.17
2023-02-26T14:25:28.356Z,0.63
2023-02-26T14:28:29.238Z,0.40
2023-02-26T14:31:11.268Z,0.60
2023-02-26T14:33:44.188Z,0.73
2023-02-26T14:36:19.652Z,0.77
2023-02-26T14:38:49.455Z,1.00
2023-02-26T14:41:26.985Z,0.70
2023-02-26T14:44:01.803Z,3.40
2023-02-26T14:46:30.366Z,0.60
2023-02-26T14:48:59.765Z,1.13
2023-02-26T14:51:39.022Z,0.97
2023-02-26T14:54:23.466Z,0.27
2023-02-26T14:57:00.987Z,1.47
2023-02-26T14:59:52.614Z,0.70
2023-02-26T15:02:29.366Z,3.30
2023-02-26T15:05:26.181Z,1.43
2023-02-26T15:08:19.434Z,1.70
2023-02-26T15:11:03.039Z,0.87
2023-02-26T15:13:49.436Z,1.07
2023-02-26T15:16:29.249Z,0.30
2023-02-26T15:19:11.107Z,0.90
2023-02-26T15:21:52.850Z,0.60
2023-02-26T15:24:21.043Z,0.57
2023-02-26T15:26:52.368Z,0.37
2023-02-26T15:29:25.222Z,1.03
2023-02-26T15:31:56.457Z,0.93
2023-02-26T15:34:25.425Z,0.40
2023-02-26T15:36:55.269Z,0.47
2023-02-26T15:39:25.161Z,1.27
2023-02-26T15:41:55.052Z,0.30
2023-02-26T15:44:26.849Z,0.80
2023-02-26T15:46:58.217Z,1.80
2023-02-26T15:49:29.301Z,1.13
2023-02-26T15:52:00.067Z,2.23
2023-02-26T15:54:35.228Z,0.20
2023-02-26T15:57:04.342Z,0.30
2023-02-26T15:59:33.946Z,0.30
2023-02-26T16:02:04.569Z,2.00
2023-02-26T16:04:32.332Z,0.77
2023-02-26T16:07:02.676Z,0.40
2023-02-26T16:09:31.963Z,0.60
2023-02-26T16:12:03.045Z,0.63
2023-02-26T16:14:34.023Z,0.37
2023-02-26T16:17:02.226Z,0.53
2023-02-26T16:19:34.868Z,0.33
2023-02-26T16:22:08.026Z,0.60
2023-02-26T16:24:36.269Z,1.23
2023-02-26T16:27:08.849Z,0.80
2023-02-26T16:29:38.780Z,1.63
2023-02-26T16:32:12.090Z,1.50
2023-02-26T16:34:44.618Z,2.53
2023-02-26T16:37:28.537Z,7.07
2023-02-26T16:39:58.699Z,5.67
2023-02-26T16:42:46.414Z,5.03
2023-02-26T16:45:21.838Z,1.67
2023-02-26T16:47:53.435Z,3.20
2023-02-26T16:50:25.875Z,4.80
2023-02-26T16:53:00.859Z,3.90
2023-02-26T16:55:30.603Z,7.73
2023-02-26T16:58:02.599Z,6.43
2023-02-26T17:00:31.844Z,1.10
2023-02-26T17:03:07.155Z,1.17
2023-02-26T17:05:37.109Z,1.70
2023-02-26T17:08:10.735Z,4.00
2023-02-26T17:10:42.000Z,2.03
2023-02-26T17:13:16.136Z,1.87
2023-02-26T17:15:46.424Z,1.43
2023-02-26T17:18:14.746Z,2.40
2023-02-26T17:20:43.153Z,2.73
2023-02-26T17:23:16.305Z,1.17
2023-02-26T17:25:47.790Z,2.40
2023-02-26T17:28:21.790Z,4.50
2023-02-26T17:30:49.851Z,3.17
2023-02-26T17:33:17.801Z,6.60
2023-02-26T17:35:46.135Z,3.87
2023-02-26T17:38:16.435Z,4.53
2023-02-26T17:40:47.576Z,1.93
2023-02-26T17:43:15.471Z,2.70
2023-02-26T17:45:43.472Z,2.43
2023-02-26T17:48:13.550Z,2.43
2023-02-26T17:50:46.989Z,3.50
2023-02-26T17:53:16.918Z,2.80
2023-02-26T17:55:45.772Z,2.53
2023-02-26T17:58:16.732Z,2.37
2023-02-26T18:00:46.001Z,2.67
2023-02-26T18:03:13.920Z,4.53
2023-02-26T18:05:41.736Z,5.97
2023-02-26T18:08:20.066Z,6.40
2023-02-26T18:10:47.890Z,5.30
2023-02-26T18:13:15.762Z,3.57
2023-02-26T18:15:43.826Z,3.43
2023-02-26T18:18:12.703Z,3.43
2023-02-26T18:20:41.016Z,2.70
2023-02-26T18:23:08.727Z,1.37
2023-02-26T18:25:39.471Z,2.20
2023-02-26T18:28:11.798Z,2.07
2023-02-26T18:30:41.630Z,1.57
2023-02-26T18:33:09.516Z,1.63
2023-02-26T18:35:37.200Z,1.33
2023-02-26T18:38:05.739Z,4.87
2023-02-26T18:40:33.510Z,2.77
2023-02-26T18:43:02.568Z,2.70
2023-02-26T18:45:30.316Z,0.90
2023-02-26T18:47:58.157Z,1.60
2023-02-26T18:50:25.903Z,2.70
2023-02-26T18:52:53.603Z,2.40
2023-02-26T18:55:21.382Z,1.43
2023-02-26T18:57:49.110Z,1.53
2023-02-26T19:00:19.312Z,1.23
2023-02-26T19:02:47.426Z,4.50
2023-02-26T19:05:16.549Z,3.67
2023-02-26T19:07:44.237Z,2.30
2023-02-26T19:10:15.045Z,3.07
2023-02-26T19:12:43.025Z,2.87
2023-02-26T19:15:12.761Z,1.67
2023-02-26T19:17:42.956Z,2.40
2023-02-26T19:20:11.756Z,1.83
2023-02-26T19:22:40.093Z,2.47
2023-02-26T19:25:08.883Z,2.70
2023-02-26T19:27:37.230Z,2.57
2023-02-26T19:30:06.236Z,1.57
2023-02-26T19:32:34.404Z,3.30
2023-02-26T19:35:03.557Z,2.67
2023-02-26T19:37:32.901Z,4.27
2023-02-26T19:40:08.483Z,20.37
2023-02-26T19:42:39.089Z,20.50
2023-02-26T19:45:41.117Z,14.17
2023-02-26T19:48:09.460Z,7.10
2023-02-26T19:50:44.326Z,4.57
2023-02-26T19:53:16.301Z,3.13
2023-02-26T19:55:48.097Z,4.27
2023-02-26T19:58:18.986Z,2.67
2023-02-26T20:00:46.986Z,5.70
2023-02-26T20:03:17.046Z,6.63
2023-02-26T20:05:49.669Z,33.53
2023-02-26T20:08:20.203Z,36.57
2023-02-26T20:10:56.608Z,18.17
2023-02-26T20:13:31.777Z,11.10
2023-02-26T20:16:10.358Z,15.17
2023-02-26T20:23:16.755Z,13.67
2023-02-26T20:30:06.112Z,9.93
2023-02-26T20:37:24.945Z,6.93
2023-02-26T20:39:57.565Z,5.63
2023-02-26T20:42:34.046Z,4.93
2023-02-26T20:45:02.345Z,4.73
2023-02-26T20:47:30.626Z,3.87
2023-02-26T20:49:59.000Z,4.17
2023-02-26T20:52:59.761Z,5.27
2023-02-26T20:55:32.768Z,5.50
2023-02-26T20:58:01.533Z,3.57
2023-02-26T21:00:52.826Z,4.03
2023-02-26T21:03:29.497Z,4.83
2023-02-26T21:05:58.104Z,5.17
2023-02-26T21:08:45.443Z,4.00
2023-02-26T21:11:37.025Z,4.00
2023-02-26T21:14:06.881Z,5.57
2023-02-26T21:16:34.790Z,6.10
2023-02-26T21:19:03.794Z,5.87
2023-02-26T21:21:36.329Z,4.13
2023-02-26T21:24:04.517Z,5.30
2023-02-26T21:26:36.206Z,5.83
2023-02-26T21:29:04.959Z,6.00
2023-02-26T21:31:35.913Z,5.87
2023-02-26T21:34:23.717Z,5.27
2023-02-26T21:36:52.589Z,5.87
2023-02-26T21:39:20.436Z,7.60
2023-02-26T21:41:49.645Z,6.37
2023-02-26T21:44:17.573Z,4.27
2023-02-26T21:46:45.700Z,3.07
2023-02-26T21:49:13.506Z,2.90
2023-02-26T21:51:41.352Z,4.43
2023-02-26T21:54:09.159Z,5.77
2023-02-26T21:56:37.797Z,2.60
2023-02-26T21:59:07.284Z,2.63
2023-02-26T22:01:35.163Z,5.10
2023-02-26T22:04:05.727Z,6.27
2023-02-26T22:06:33.631Z,3.20
2023-02-26T22:09:01.548Z,4.57
2023-02-26T22:11:29.549Z,2.53
2023-02-26T22:14:00.330Z,3.73
2023-02-26T22:16:29.797Z,3.93
2023-02-26T22:18:57.823Z,4.73
2023-02-26T22:21:26.724Z,4.20
2023-02-26T22:23:54.900Z,5.60
2023-02-26T22:26:23.063Z,2.77
2023-02-26T22:28:51.176Z,3.97
2023-02-26T22:31:19.100Z,4.40
2023-02-26T22:33:48.477Z,6.03
2023-02-26T22:36:16.439Z,5.00
2023-02-26T22:38:47.680Z,5.47
2023-02-26T22:41:15.688Z,4.73
2023-02-26T22:43:43.620Z,6.03
2023-02-26T22:46:11.670Z,3.57
2023-02-26T22:48:44.943Z,4.47
2023-02-26T22:51:14.405Z,5.00
2023-02-26T22:53:42.977Z,4.20
2023-02-26T22:56:11.117Z,3.70
2023-02-26T22:58:40.906Z,5.33
2023-02-26T23:01:09.393Z,2.97
2023-02-26T23:03:37.312Z,2.80
2023-02-26T23:06:05.603Z,2.73
2023-02-26T23:08:37.392Z,3.93
2023-02-26T23:11:06.152Z,3.13
2023-02-26T23:13:35.567Z,7.23
2023-02-26T23:16:05.395Z,3.90
2023-02-26T23:18:34.173Z,5.93
2023-02-26T23:21:05.412Z,5.83
2023-02-26T23:23:37.635Z,6.47
2023-02-26T23:26:11.181Z,7.53
2023-02-26T23:28:39.396Z,8.43
2023-02-26T23:31:07.268Z,7.80
2023-02-26T23:33:35.188Z,6.77
2023-02-26T23:36:03.033Z,6.10
2023-02-26T23:38:30.804Z,6.57
2023-02-26T23:41:00.067Z,6.47
2023-02-26T23:43:28.143Z,7.27
2023-02-26T23:45:56.044Z,4.33
2023-02-26T23:48:24.777Z,3.73
2023-02-26T23:50:53.301Z,4.27
2023-02-26T23:53:21.254Z,3.80
2023-02-26T23:55:51.715Z,4.63
2023-02-26T23:58:20.909Z,5.97
